sensor_id;sensor_type;location;lat;lon;timestamp;pressure;altitude;pressure_sealevel;temperature;humidity
67499;BME280;54345;42.670;23.218;2022-10-16T00:00:52;93150.69;;;8.95;100.00
67499;BME280;54345;42.670;23.218;2022-10-16T00:03:18;93159.09;;;9.08;100.00
67499;BME280;54345;42.670;23.218;2022-10-16T00:05:44;93164.03;;;9.09;100.00
67499;BME280;54345;42.670;23.218;2022-10-16T00:08:12;93167.22;;;9.08;100.00
67499;BME280;54345;42.670;23.218;2022-10-16T00:10:39;93172.66;;;8.86;100.00
67499;BME280;54345;42.670;23.218;2022-10-16T00:13:05;93170.63;;;8.70;100.00
67499;BME280;54345;42.670;23.218;2022-10-16T00:15:33;93171.41;;;8.76;100.00
67499;BME280;54345;42.670;23.218;2022-10-16T00:18:02;93169.44;;;8.82;100.00
67499;BME280;54345;42.670;23.218;2022-10-16T00:20:28;93172.16;;;8.82;100.00
67499;BME280;54345;42.670;23.218;2022-10-16T00:22:54;93181.25;;;8.68;100.00
67499;BME280;54345;42.670;23.218;2022-10-16T00:25:19;93178.97;;;8.50;100.00
67499;BME280;54345;42.670;23.218;2022-10-16T00:27:45;93183.22;;;8.62;100.00
67499;BME280;54345;42.670;23.218;2022-10-16T00:30:10;93175.81;;;8.68;100.00
67499;BME280;54345;42.670;23.218;2022-10-16T00:32:36;93179.81;;;8.89;100.00
67499;BME280;54345;42.670;23.218;2022-10-16T00:35:02;93175.13;;;8.89;100.00
67499;BME280;54345;42.670;23.218;2022-10-16T00:37:29;93183.25;;;8.84;100.00
67499;BME280;54345;42.670;23.218;2022-10-16T00:39:54;93183.53;;;8.97;100.00
67499;BME280;54345;42.670;23.218;2022-10-16T00:42:20;93176.59;;;8.90;100.00
67499;BME280;54345;42.670;23.218;2022-10-16T00:44:54;93174.88;;;8.87;100.00
67499;BME280;54345;42.670;23.218;2022-10-16T00:47:35;93187.13;;;8.50;100.00
67499;BME280;54345;42.670;23.218;2022-10-16T00:50:08;93179.88;;;8.19;100.00
67499;BME280;54345;42.670;23.218;2022-10-16T00:52:35;93179.91;;;8.25;100.00
67499;BME280;54345;42.670;23.218;2022-10-16T00:55:03;93185.06;;;8.23;100.00
67499;BME280;54345;42.670;23.218;2022-10-16T00:57:30;93184.91;;;8.43;100.00
67499;BME280;54345;42.670;23.218;2022-10-16T00:59:56;93176.81;;;8.65;100.00
67499;BME280;54345;42.670;23.218;2022-10-16T01:02:23;93167.22;;;8.80;100.00
67499;BME280;54345;42.670;23.218;2022-10-16T01:04:53;93178.53;;;8.73;100.00
67499;BME280;54345;42.670;23.218;2022-10-16T01:07:35;93178.72;;;8.48;100.00
67499;BME280;54345;42.670;23.218;2022-10-16T01:12:51;93196.59;;;7.70;100.00
67499;BME280;54345;42.670;23.218;2022-10-16T01:18:27;93190.91;;;8.10;100.00
67499;BME280;54345;42.670;23.218;2022-10-16T01:21:17;93190.31;;;8.37;100.00
67499;BME280;54345;42.670;23.218;2022-10-16T01:24:17;93190.00;;;8.19;100.00
67499;BME280;54345;42.670;23.218;2022-10-16T01:27:11;93179.44;;;8.37;100.00
67499;BME280;54345;42.670;23.218;2022-10-16T01:29:59;93176.53;;;8.52;100.00
67499;BME280;54345;42.670;23.218;2022-10-16T01:32:52;93172.59;;;8.53;100.00
67499;BME280;54345;42.670;23.218;2022-10-16T01:35:37;93173.09;;;8.57;100.00
67499;BME280;54345;42.670;23.218;2022-10-16T01:38:12;93167.66;;;8.57;100.00
67499;BME280;54345;42.670;23.218;2022-10-16T01:40:41;93175.28;;;8.42;100.00
67499;BME280;54345;42.670;23.218;2022-10-16T01:43:15;93186.34;;;7.85;100.00
67499;BME280;54345;42.670;23.218;2022-10-16T01:45:44;93187.16;;;7.55;100.00
67499;BME280;54345;42.670;23.218;2022-10-16T01:48:17;93186.47;;;7.65;100.00
67499;BME280;54345;42.670;23.218;2022-10-16T01:50:44;93186.72;;;8.09;100.00
67499;BME280;54345;42.670;23.218;2022-10-16T01:53:15;93195.50;;;8.35;100.00
67499;BME280;54345;42.670;23.218;2022-10-16T01:55:45;93180.44;;;7.92;100.00
67499;BME280;54345;42.670;23.218;2022-10-16T01:58:14;93181.50;;;8.06;100.00
67499;BME280;54345;42.670;23.218;2022-10-16T02:00:42;93188.91;;;8.00;100.00
67499;BME280;54345;42.670;23.218;2022-10-16T02:03:11;93195.25;;;7.91;100.00
67499;BME280;54345;42.670;23.218;2022-10-16T02:05:42;93204.78;;;7.76;100.00
67499;BME280;54345;42.670;23.218;2022-10-16T02:08:10;93209.84;;;7.57;100.00
67499;BME280;54345;42.670;23.218;2022-10-16T02:10:37;93202.41;;;7.89;100.00
67499;BME280;54345;42.670;23.218;2022-10-16T02:13:08;93201.19;;;7.95;100.00
67499;BME280;54345;42.670;23.218;2022-10-16T02:15:35;93206.78;;;8.23;100.00
67499;BME280;54345;42.670;23.218;2022-10-16T02:18:05;93200.72;;;8.02;100.00
67499;BME280;54345;42.670;23.218;2022-10-16T02:20:37;93205.09;;;8.31;100.00
67499;BME280;54345;42.670;23.218;2022-10-16T02:23:04;93206.16;;;8.08;100.00
67499;BME280;54345;42.670;23.218;2022-10-16T02:25:35;93214.09;;;8.11;100.00
67499;BME280;54345;42.670;23.218;2022-10-16T02:28:22;93214.53;;;7.57;100.00
67499;BME280;54345;42.670;23.218;2022-10-16T02:31:02;93220.91;;;7.23;100.00
67499;BME280;54345;42.670;23.218;2022-10-16T02:33:30;93226.38;;;7.29;100.00
67499;BME280;54345;42.670;23.218;2022-10-16T02:35:58;93228.56;;;7.55;100.00
67499;BME280;54345;42.670;23.218;2022-10-16T02:38:25;93219.78;;;7.71;100.00
67499;BME280;54345;42.670;23.218;2022-10-16T02:40:51;93218.31;;;7.76;100.00
67499;BME280;54345;42.670;23.218;2022-10-16T02:43:17;93219.84;;;7.77;100.00
67499;BME280;54345;42.670;23.218;2022-10-16T02:45:43;93220.75;;;7.68;100.00
67499;BME280;54345;42.670;23.218;2022-10-16T02:48:09;93231.69;;;7.85;100.00
67499;BME280;54345;42.670;23.218;2022-10-16T02:50:34;93228.69;;;7.77;100.00
67499;BME280;54345;42.670;23.218;2022-10-16T02:53:00;93227.28;;;7.20;100.00
67499;BME280;54345;42.670;23.218;2022-10-16T02:55:26;93234.34;;;7.12;100.00
67499;BME280;54345;42.670;23.218;2022-10-16T02:57:53;93234.72;;;7.25;100.00
67499;BME280;54345;42.670;23.218;2022-10-16T03:00:19;93245.78;;;7.52;100.00
67499;BME280;54345;42.670;23.218;2022-10-16T03:02:45;93247.47;;;7.50;100.00
67499;BME280;54345;42.670;23.218;2022-10-16T03:05:12;93232.22;;;7.89;100.00
67499;BME280;54345;42.670;23.218;2022-10-16T03:07:39;93233.22;;;7.97;100.00
67499;BME280;54345;42.670;23.218;2022-10-16T03:10:05;93223.94;;;8.09;100.00
67499;BME280;54345;42.670;23.218;2022-10-16T03:12:31;93229.28;;;7.56;100.00
67499;BME280;54345;42.670;23.218;2022-10-16T03:14:57;93236.34;;;7.79;100.00
67499;BME280;54345;42.670;23.218;2022-10-16T03:17:23;93232.06;;;8.03;100.00
67499;BME280;54345;42.670;23.218;2022-10-16T03:19:49;93232.63;;;7.76;100.00
67499;BME280;54345;42.670;23.218;2022-10-16T03:22:14;93231.19;;;7.81;100.00
67499;BME280;54345;42.670;23.218;2022-10-16T03:24:40;93229.72;;;7.85;100.00
67499;BME280;54345;42.670;23.218;2022-10-16T03:27:05;93239.22;;;7.64;100.00
67499;BME280;54345;42.670;23.218;2022-10-16T03:29:31;93242.56;;;7.90;100.00
67499;BME280;54345;42.670;23.218;2022-10-16T03:31:58;93238.38;;;7.22;100.00
67499;BME280;54345;42.670;23.218;2022-10-16T03:34:24;93242.16;;;7.30;100.00
67499;BME280;54345;42.670;23.218;2022-10-16T03:36:49;93244.59;;;7.59;100.00
67499;BME280;54345;42.670;23.218;2022-10-16T03:39:15;93246.53;;;7.58;100.00
67499;BME280;54345;42.670;23.218;2022-10-16T03:41:40;93234.69;;;7.56;100.00
67499;BME280;54345;42.670;23.218;2022-10-16T03:44:06;93243.84;;;7.58;100.00
67499;BME280;54345;42.670;23.218;2022-10-16T03:46:32;93233.00;;;7.58;100.00
67499;BME280;54345;42.670;23.218;2022-10-16T03:48:57;93221.31;;;7.11;100.00
67499;BME280;54345;42.670;23.218;2022-10-16T03:51:23;93236.38;;;6.92;100.00
67499;BME280;54345;42.670;23.218;2022-10-16T03:53:48;93243.34;;;6.98;100.00
67499;BME280;54345;42.670;23.218;2022-10-16T03:56:14;93243.78;;;7.22;100.00
67499;BME280;54345;42.670;23.218;2022-10-16T03:58:40;93237.88;;;7.49;100.00
67499;BME280;54345;42.670;23.218;2022-10-16T04:01:05;93243.94;;;7.38;100.00
67499;BME280;54345;42.670;23.218;2022-10-16T04:03:31;93245.66;;;7.36;100.00
67499;BME280;54345;42.670;23.218;2022-10-16T04:05:56;93237.66;;;7.22;100.00
67499;BME280;54345;42.670;23.218;2022-10-16T04:08:22;93234.53;;;7.34;100.00
67499;BME280;54345;42.670;23.218;2022-10-16T04:10:47;93240.94;;;7.67;100.00
67499;BME280;54345;42.670;23.218;2022-10-16T04:13:13;93225.81;;;7.19;100.00
67499;BME280;54345;42.670;23.218;2022-10-16T04:15:39;93233.06;;;7.08;100.00
67499;BME280;54345;42.670;23.218;2022-10-16T04:18:04;93234.78;;;7.31;100.00
67499;BME280;54345;42.670;23.218;2022-10-16T04:20:30;93247.09;;;7.62;100.00
67499;BME280;54345;42.670;23.218;2022-10-16T04:22:55;93238.59;;;7.49;100.00
67499;BME280;54345;42.670;23.218;2022-10-16T04:25:21;93243.63;;;7.62;100.00
67499;BME280;54345;42.670;23.218;2022-10-16T04:27:47;93237.47;;;7.00;100.00
67499;BME280;54345;42.670;23.218;2022-10-16T04:30:13;93250.75;;;7.29;100.00
67499;BME280;54345;42.670;23.218;2022-10-16T04:32:39;93242.84;;;7.25;100.00
67499;BME280;54345;42.670;23.218;2022-10-16T04:35:05;93248.59;;;7.07;100.00
67499;BME280;54345;42.670;23.218;2022-10-16T04:37:31;93247.22;;;7.48;100.00
67499;BME280;54345;42.670;23.218;2022-10-16T04:39:57;93249.19;;;7.84;100.00
67499;BME280;54345;42.670;23.218;2022-10-16T04:42:22;93247.66;;;7.77;100.00
67499;BME280;54345;42.670;23.218;2022-10-16T04:44:48;93242.81;;;6.94;100.00
67499;BME280;54345;42.670;23.218;2022-10-16T04:47:13;93258.50;;;7.41;100.00
67499;BME280;54345;42.670;23.218;2022-10-16T04:49:39;93254.38;;;7.51;100.00
67499;BME280;54345;42.670;23.218;2022-10-16T04:52:05;93259.03;;;7.50;100.00
67499;BME280;54345;42.670;23.218;2022-10-16T04:54:31;93256.63;;;7.52;100.00
67499;BME280;54345;42.670;23.218;2022-10-16T04:56:56;93267.84;;;7.71;100.00
67499;BME280;54345;42.670;23.218;2022-10-16T04:59:22;93273.25;;;7.71;100.00
67499;BME280;54345;42.670;23.218;2022-10-16T05:01:48;93265.19;;;7.45;100.00
67499;BME280;54345;42.670;23.218;2022-10-16T05:04:14;93267.00;;;7.59;100.00
67499;BME280;54345;42.670;23.218;2022-10-16T05:06:41;93271.22;;;7.35;100.00
67499;BME280;54345;42.670;23.218;2022-10-16T05:09:07;93274.75;;;7.72;100.00
67499;BME280;54345;42.670;23.218;2022-10-16T05:11:33;93278.47;;;7.74;100.00
67499;BME280;54345;42.670;23.218;2022-10-16T05:13:59;93282.00;;;7.55;100.00
67499;BME280;54345;42.670;23.218;2022-10-16T05:16:25;93277.63;;;7.63;100.00
67499;BME280;54345;42.670;23.218;2022-10-16T05:18:51;93279.25;;;7.49;100.00
67499;BME280;54345;42.670;23.218;2022-10-16T05:21:17;93278.78;;;7.51;100.00
67499;BME280;54345;42.670;23.218;2022-10-16T05:23:42;93285.19;;;7.53;100.00
67499;BME280;54345;42.670;23.218;2022-10-16T05:26:08;93286.59;;;7.74;100.00
67499;BME280;54345;42.670;23.218;2022-10-16T05:28:34;93294.50;;;7.78;100.00
67499;BME280;54345;42.670;23.218;2022-10-16T05:31:04;93288.31;;;8.14;100.00
67499;BME280;54345;42.670;23.218;2022-10-16T05:33:30;93284.31;;;8.04;100.00
67499;BME280;54345;42.670;23.218;2022-10-16T05:35:55;93285.75;;;7.63;100.00
67499;BME280;54345;42.670;23.218;2022-10-16T05:38:21;93278.75;;;8.18;100.00
67499;BME280;54345;42.670;23.218;2022-10-16T05:40:55;93281.81;;;8.37;100.00
67499;BME280;54345;42.670;23.218;2022-10-16T05:43:22;93286.84;;;8.55;100.00
67499;BME280;54345;42.670;23.218;2022-10-16T05:45:59;93286.47;;;8.89;100.00
67499;BME280;54345;42.670;23.218;2022-10-16T05:48:26;93278.19;;;9.48;100.00
67499;BME280;54345;42.670;23.218;2022-10-16T05:51:06;93272.28;;;9.71;100.00
67499;BME280;54345;42.670;23.218;2022-10-16T05:53:34;93270.03;;;9.59;100.00
67499;BME280;54345;42.670;23.218;2022-10-16T05:56:01;93274.47;;;9.62;100.00
67499;BME280;54345;42.670;23.218;2022-10-16T05:58:35;93280.19;;;10.02;100.00
67499;BME280;54345;42.670;23.218;2022-10-16T06:01:15;93283.38;;;9.84;100.00
67499;BME280;54345;42.670;23.218;2022-10-16T06:03:41;93287.06;;;10.25;100.00
67499;BME280;54345;42.670;23.218;2022-10-16T06:06:13;93282.38;;;9.82;100.00
67499;BME280;54345;42.670;23.218;2022-10-16T06:08:40;93293.03;;;9.80;100.00
67499;BME280;54345;42.670;23.218;2022-10-16T06:11:08;93300.66;;;9.59;100.00
67499;BME280;54345;42.670;23.218;2022-10-16T06:13:34;93296.69;;;10.42;100.00
67499;BME280;54345;42.670;23.218;2022-10-16T06:16:01;93302.41;;;9.51;100.00
67499;BME280;54345;42.670;23.218;2022-10-16T06:18:28;93305.88;;;9.63;100.00
67499;BME280;54345;42.670;23.218;2022-10-16T06:20:54;93299.72;;;9.84;100.00
67499;BME280;54345;42.670;23.218;2022-10-16T06:23:20;93305.31;;;10.46;100.00
67499;BME280;54345;42.670;23.218;2022-10-16T06:25:46;93305.84;;;10.39;100.00
67499;BME280;54345;42.670;23.218;2022-10-16T06:28:13;93301.13;;;10.45;100.00
67499;BME280;54345;42.670;23.218;2022-10-16T06:30:39;93301.66;;;9.73;100.00
67499;BME280;54345;42.670;23.218;2022-10-16T06:33:04;93308.59;;;9.95;100.00
67499;BME280;54345;42.670;23.218;2022-10-16T06:35:30;93313.53;;;10.35;100.00
67499;BME280;54345;42.670;23.218;2022-10-16T06:37:57;93316.00;;;10.33;100.00
67499;BME280;54345;42.670;23.218;2022-10-16T06:40:23;93320.84;;;10.79;100.00
67499;BME280;54345;42.670;23.218;2022-10-16T06:42:48;93322.03;;;10.89;100.00
67499;BME280;54345;42.670;23.218;2022-10-16T06:45:14;93328.31;;;10.56;100.00
67499;BME280;54345;42.670;23.218;2022-10-16T06:47:39;93323.13;;;10.64;100.00
67499;BME280;54345;42.670;23.218;2022-10-16T06:50:05;93330.66;;;10.98;100.00
67499;BME280;54345;42.670;23.218;2022-10-16T06:52:33;93323.34;;;10.71;100.00
67499;BME280;54345;42.670;23.218;2022-10-16T06:54:59;93328.38;;;10.34;100.00
67499;BME280;54345;42.670;23.218;2022-10-16T06:57:25;93329.56;;;11.23;100.00
67499;BME280;54345;42.670;23.218;2022-10-16T06:59:50;93328.25;;;10.78;100.00
67499;BME280;54345;42.670;23.218;2022-10-16T07:02:16;93338.13;;;10.92;100.00
67499;BME280;54345;42.670;23.218;2022-10-16T07:04:41;93335.31;;;10.24;100.00
67499;BME280;54345;42.670;23.218;2022-10-16T07:07:07;93344.72;;;10.23;100.00
67499;BME280;54345;42.670;23.218;2022-10-16T07:09:32;93352.16;;;10.23;100.00
67499;BME280;54345;42.670;23.218;2022-10-16T07:11:58;93354.81;;;10.56;100.00
67499;BME280;54345;42.670;23.218;2022-10-16T07:14:23;93354.13;;;10.17;100.00
67499;BME280;54345;42.670;23.218;2022-10-16T07:16:49;93367.22;;;9.91;100.00
67499;BME280;54345;42.670;23.218;2022-10-16T07:19:14;93369.22;;;10.07;100.00
67499;BME280;54345;42.670;23.218;2022-10-16T07:21:42;93361.53;;;10.38;100.00
67499;BME280;54345;42.670;23.218;2022-10-16T07:24:13;93375.34;;;9.64;100.00
67499;BME280;54345;42.670;23.218;2022-10-16T07:26:40;93369.22;;;10.07;100.00
67499;BME280;54345;42.670;23.218;2022-10-16T07:29:12;93366.19;;;10.60;100.00
67499;BME280;54345;42.670;23.218;2022-10-16T07:31:38;93362.34;;;11.07;100.00
67499;BME280;54345;42.670;23.218;2022-10-16T07:34:04;93359.78;;;10.35;100.00
67499;BME280;54345;42.670;23.218;2022-10-16T07:36:29;93366.97;;;10.16;100.00
67499;BME280;54345;42.670;23.218;2022-10-16T07:38:55;93369.13;;;10.73;100.00
67499;BME280;54345;42.670;23.218;2022-10-16T07:41:21;93361.28;;;9.87;100.00
67499;BME280;54345;42.670;23.218;2022-10-16T07:43:51;93374.19;;;10.08;100.00
67499;BME280;54345;42.670;23.218;2022-10-16T07:46:18;93373.13;;;10.61;100.00
67499;BME280;54345;42.670;23.218;2022-10-16T07:48:44;93367.72;;;10.28;100.00
67499;BME280;54345;42.670;23.218;2022-10-16T07:51:16;93376.88;;;10.47;100.00
67499;BME280;54345;42.670;23.218;2022-10-16T07:53:42;93368.94;;;10.54;100.00
67499;BME280;54345;42.670;23.218;2022-10-16T07:56:08;93374.81;;;10.91;100.00
67499;BME280;54345;42.670;23.218;2022-10-16T07:58:34;93367.06;;;11.01;100.00
67499;BME280;54345;42.670;23.218;2022-10-16T08:01:10;93382.25;;;10.80;100.00
67499;BME280;54345;42.670;23.218;2022-10-16T08:03:37;93366.78;;;11.15;100.00
67499;BME280;54345;42.670;23.218;2022-10-16T08:06:03;93368.81;;;10.98;100.00
67499;BME280;54345;42.670;23.218;2022-10-16T08:08:29;93375.44;;;11.14;100.00
67499;BME280;54345;42.670;23.218;2022-10-16T08:10:55;93366.19;;;11.85;100.00
67499;BME280;54345;42.670;23.218;2022-10-16T08:13:21;93366.16;;;11.44;100.00
67499;BME280;54345;42.670;23.218;2022-10-16T08:15:47;93370.69;;;11.25;100.00
67499;BME280;54345;42.670;23.218;2022-10-16T08:18:14;93364.09;;;11.61;100.00
67499;BME280;54345;42.670;23.218;2022-10-16T08:20:40;93362.88;;;11.51;100.00
67499;BME280;54345;42.670;23.218;2022-10-16T08:23:07;93366.81;;;11.61;100.00
67499;BME280;54345;42.670;23.218;2022-10-16T08:25:36;93367.28;;;11.08;100.00
67499;BME280;54345;42.670;23.218;2022-10-16T08:28:10;93363.13;;;11.53;100.00
67499;BME280;54345;42.670;23.218;2022-10-16T08:30:36;93365.25;;;11.25;100.00
67499;BME280;54345;42.670;23.218;2022-10-16T08:33:02;93356.63;;;11.67;100.00
67499;BME280;54345;42.670;23.218;2022-10-16T08:35:28;93359.56;;;11.69;100.00
67499;BME280;54345;42.670;23.218;2022-10-16T08:37:54;93355.22;;;11.50;100.00
67499;BME280;54345;42.670;23.218;2022-10-16T08:40:23;93354.69;;;11.51;100.00
67499;BME280;54345;42.670;23.218;2022-10-16T08:43:00;93364.72;;;11.78;100.00
67499;BME280;54345;42.670;23.218;2022-10-16T08:48:20;93352.41;;;11.66;100.00
67499;BME280;54345;42.670;23.218;2022-10-16T08:50:52;93358.47;;;11.83;100.00
67499;BME280;54345;42.670;23.218;2022-10-16T08:53:22;93361.16;;;11.94;100.00
67499;BME280;54345;42.670;23.218;2022-10-16T08:55:51;93368.44;;;12.16;100.00
67499;BME280;54345;42.670;23.218;2022-10-16T08:58:20;93367.38;;;12.24;100.00
67499;BME280;54345;42.670;23.218;2022-10-16T09:00:49;93374.50;;;12.33;100.00
67499;BME280;54345;42.670;23.218;2022-10-16T09:06:10;93369.72;;;12.39;100.00
67499;BME280;54345;42.670;23.218;2022-10-16T09:09:02;93365.56;;;12.32;100.00
67499;BME280;54345;42.670;23.218;2022-10-16T09:13:59;93364.44;;;12.17;100.00
67499;BME280;54345;42.670;23.218;2022-10-16T09:16:30;93356.66;;;12.32;100.00
67499;BME280;54345;42.670;23.218;2022-10-16T09:21:33;93356.81;;;12.39;100.00
67499;BME280;54345;42.670;23.218;2022-10-16T09:24:15;93350.00;;;12.75;100.00
67499;BME280;54345;42.670;23.218;2022-10-16T09:26:41;93353.44;;;12.81;100.00
67499;BME280;54345;42.670;23.218;2022-10-16T09:29:13;93357.28;;;12.96;100.00
67499;BME280;54345;42.670;23.218;2022-10-16T09:31:39;93350.81;;;12.70;100.00
67499;BME280;54345;42.670;23.218;2022-10-16T09:34:06;93353.44;;;13.05;100.00
67499;BME280;54345;42.670;23.218;2022-10-16T09:36:42;93346.00;;;13.24;100.00
67499;BME280;54345;42.670;23.218;2022-10-16T09:39:11;93353.63;;;13.31;100.00
67499;BME280;54345;42.670;23.218;2022-10-16T09:41:39;93349.44;;;13.30;100.00
67499;BME280;54345;42.670;23.218;2022-10-16T09:44:33;93348.16;;;13.49;100.00
67499;BME280;54345;42.670;23.218;2022-10-16T09:47:21;93332.03;;;13.27;100.00
67499;BME280;54345;42.670;23.218;2022-10-16T09:49:57;93335.06;;;13.24;100.00
67499;BME280;54345;42.670;23.218;2022-10-16T09:52:25;93329.09;;;13.25;100.00
67499;BME280;54345;42.670;23.218;2022-10-16T09:54:53;93333.66;;;13.36;100.00
67499;BME280;54345;42.670;23.218;2022-10-16T09:57:20;93324.06;;;13.48;100.00
67499;BME280;54345;42.670;23.218;2022-10-16T09:59:48;93326.03;;;13.29;100.00
67499;BME280;54345;42.670;23.218;2022-10-16T10:02:17;93325.38;;;13.60;100.00
67499;BME280;54345;42.670;23.218;2022-10-16T10:04:53;93330.06;;;13.96;100.00
67499;BME280;54345;42.670;23.218;2022-10-16T10:07:34;93326.88;;;13.42;100.00
67499;BME280;54345;42.670;23.218;2022-10-16T10:10:04;93322.94;;;13.75;100.00
67499;BME280;54345;42.670;23.218;2022-10-16T10:12:32;93327.63;;;13.43;100.00
67499;BME280;54345;42.670;23.218;2022-10-16T10:15:11;93320.06;;;13.49;100.00
67499;BME280;54345;42.670;23.218;2022-10-16T10:17:52;93321.31;;;13.66;100.00
67499;BME280;54345;42.670;23.218;2022-10-16T10:20:33;93326.78;;;13.85;100.00
67499;BME280;54345;42.670;23.218;2022-10-16T10:23:01;93323.81;;;14.14;100.00
67499;BME280;54345;42.670;23.218;2022-10-16T10:25:42;93317.63;;;13.64;100.00
67499;BME280;54345;42.670;23.218;2022-10-16T10:33:37;93310.50;;;14.24;100.00
67499;BME280;54345;42.670;23.218;2022-10-16T10:36:40;93304.28;;;14.23;100.00
67499;BME280;54345;42.670;23.218;2022-10-16T10:39:00;93298.50;;;13.77;100.00
67499;BME280;54345;42.670;23.218;2022-10-16T10:41:45;93295.91;;;14.16;100.00
67499;BME280;54345;42.670;23.218;2022-10-16T10:46:53;93293.97;;;14.29;100.00
67499;BME280;54345;42.670;23.218;2022-10-16T11:09:24;93278.72;;;14.86;100.00
67499;BME280;54345;42.670;23.218;2022-10-16T11:12:15;93279.38;;;14.79;100.00
67499;BME280;54345;42.670;23.218;2022-10-16T11:17:34;93274.94;;;14.89;100.00
67499;BME280;54345;42.670;23.218;2022-10-16T11:21:02;93275.34;;;14.93;100.00
67499;BME280;54345;42.670;23.218;2022-10-16T11:23:05;93265.44;;;14.90;100.00
67499;BME280;54345;42.670;23.218;2022-10-16T11:25:33;93263.19;;;15.14;100.00
67499;BME280;54345;42.670;23.218;2022-10-16T11:28:11;93262.88;;;15.18;100.00
67499;BME280;54345;42.670;23.218;2022-10-16T11:41:00;93261.50;;;15.24;100.00
67499;BME280;54345;42.670;23.218;2022-10-16T11:43:34;93262.06;;;15.10;100.00
67499;BME280;54345;42.670;23.218;2022-10-16T11:46:10;93261.00;;;15.00;100.00
67499;BME280;54345;42.670;23.218;2022-10-16T11:48:48;93259.63;;;15.06;100.00
67499;BME280;54345;42.670;23.218;2022-10-16T11:51:42;93259.03;;;15.46;100.00
67499;BME280;54345;42.670;23.218;2022-10-16T11:54:31;93259.16;;;15.74;100.00
67499;BME280;54345;42.670;23.218;2022-10-16T11:57:05;93259.59;;;15.19;100.00
67499;BME280;54345;42.670;23.218;2022-10-16T11:59:51;93268.13;;;15.28;100.00
67499;BME280;54345;42.670;23.218;2022-10-16T12:08:11;93261.81;;;15.21;100.00
67499;BME280;54345;42.670;23.218;2022-10-16T12:10:39;93262.44;;;15.39;100.00
67499;BME280;54345;42.670;23.218;2022-10-16T12:13:33;93256.81;;;15.99;100.00
67499;BME280;54345;42.670;23.218;2022-10-16T12:16:21;93261.16;;;15.40;100.00
67499;BME280;54345;42.670;23.218;2022-10-16T12:18:47;93266.22;;;15.49;100.00
67499;BME280;54345;42.670;23.218;2022-10-16T12:21:16;93256.84;;;15.32;100.00
67499;BME280;54345;42.670;23.218;2022-10-16T12:23:53;93253.50;;;15.59;100.00
67499;BME280;54345;42.670;23.218;2022-10-16T12:26:30;93262.19;;;15.50;100.00
67499;BME280;54345;42.670;23.218;2022-10-16T12:29:12;93263.25;;;15.81;100.00
67499;BME280;54345;42.670;23.218;2022-10-16T12:31:44;93269.44;;;15.61;93.18
67499;BME280;54345;42.670;23.218;2022-10-16T12:34:35;93255.56;;;15.46;95.96
67499;BME280;54345;42.670;23.218;2022-10-16T12:37:15;93256.81;;;15.78;98.62
67499;BME280;54345;42.670;23.218;2022-10-16T12:39:45;93269.63;;;15.63;100.00
67499;BME280;54345;42.670;23.218;2022-10-16T12:42:30;93260.06;;;15.56;100.00
67499;BME280;54345;42.670;23.218;2022-10-16T12:44:57;93264.13;;;15.76;100.00
67499;BME280;54345;42.670;23.218;2022-10-16T12:47:23;93266.13;;;15.75;100.00
67499;BME280;54345;42.670;23.218;2022-10-16T12:49:54;93259.41;;;15.63;100.00
67499;BME280;54345;42.670;23.218;2022-10-16T12:54:59;93257.09;;;15.88;100.00
67499;BME280;54345;42.670;23.218;2022-10-16T12:57:44;93269.88;;;15.85;100.00
67499;BME280;54345;42.670;23.218;2022-10-16T13:00:24;93270.88;;;15.75;100.00
67499;BME280;54345;42.670;23.218;2022-10-16T13:03:37;93273.44;;;15.93;100.00
67499;BME280;54345;42.670;23.218;2022-10-16T13:06:30;93281.06;;;15.87;100.00
67499;BME280;54345;42.670;23.218;2022-10-16T13:14:54;93278.59;;;16.17;100.00
67499;BME280;54345;42.670;23.218;2022-10-16T13:17:37;93277.13;;;16.16;99.17
67499;BME280;54345;42.670;23.218;2022-10-16T13:29:01;93270.69;;;16.14;100.00
67499;BME280;54345;42.670;23.218;2022-10-16T13:31:28;93278.59;;;16.17;100.00
67499;BME280;54345;42.670;23.218;2022-10-16T13:33:57;93281.69;;;16.34;100.00
67499;BME280;54345;42.670;23.218;2022-10-16T13:36:35;93287.38;;;15.95;100.00
67499;BME280;54345;42.670;23.218;2022-10-16T13:39:10;93284.09;;;15.97;100.00
67499;BME280;54345;42.670;23.218;2022-10-16T13:41:37;93281.94;;;15.82;100.00
67499;BME280;54345;42.670;23.218;2022-10-16T13:44:04;93285.78;;;16.00;100.00
67499;BME280;54345;42.670;23.218;2022-10-16T13:46:30;93288.84;;;15.96;100.00
67499;BME280;54345;42.670;23.218;2022-10-16T13:49:05;93286.97;;;15.91;100.00
67499;BME280;54345;42.670;23.218;2022-10-16T13:51:32;93290.00;;;16.01;100.00
67499;BME280;54345;42.670;23.218;2022-10-16T13:53:58;93287.50;;;15.90;100.00
67499;BME280;54345;42.670;23.218;2022-10-16T13:56:32;93283.88;;;15.95;100.00
67499;BME280;54345;42.670;23.218;2022-10-16T13:58:59;93285.19;;;16.14;100.00
67499;BME280;54345;42.670;23.218;2022-10-16T14:01:30;93286.97;;;15.91;100.00
67499;BME280;54345;42.670;23.218;2022-10-16T14:04:05;93293.25;;;15.99;100.00
67499;BME280;54345;42.670;23.218;2022-10-16T14:06:32;93279.53;;;15.99;100.00
67499;BME280;54345;42.670;23.218;2022-10-16T14:09:27;93294.47;;;15.91;100.00
67499;BME280;54345;42.670;23.218;2022-10-16T14:12:00;93284.56;;;15.88;100.00
67499;BME280;54345;42.670;23.218;2022-10-16T14:14:35;93288.09;;;15.75;100.00
67499;BME280;54345;42.670;23.218;2022-10-16T14:17:04;93286.81;;;15.76;100.00
67499;BME280;54345;42.670;23.218;2022-10-16T14:19:31;93290.56;;;15.86;100.00
67499;BME280;54345;42.670;23.218;2022-10-16T14:21:58;93294.31;;;15.76;100.00